الصفحة الرئيسية
صور السواتل توقعات الطقس لمدة 10 يوممناخالطقس البحري أعاصير برق مطارأسئلة وأجوبة الرسائل الإخبارية نبذة
طقس : أوروبا أفريقيا أمريكا الشمالية أمريكا الجنوبية آسيا أستراليا-أوقيانوسيا أخرى
لغات جهة اتصال

سكاكا, السعودية

دائرة عرض: 29-47N, خط طول: 040-06E, ارتفاع: 689 متر


METAR: OESK 312200Z 09004KT CAVOK 10/00 Q1023
TAF: OESK 311030Z 3112/0118 10004G14KT 7000 NSC BECGM 3118/3120 VRB03KT

زمن: 01:34 (22:34 UTC)

مراقبة الطقس الحالي

تاريخ ووقت الإصدار 34 دقيقة قبل الساعة 22:00UTC
ريح 4 عقدة من الشرق
درجة الحرارة 10°درجة مئوية
الرطوبة 50%
ضغط 1023 hPa
الرؤية 10 كم أو أكثر
الغيوم لا تقل 1500 م ولا وجود لمزنة ركامية السحاب الأسود

تغيير وحدة

توقعات

تاريخ ووقت الإصدار 12ساعات و 4 دقيقة قبل الساعة 10:30UTC
التوقعات صالحة من31 الساعة 12 UTC إلى 01 الساعة 18 UTC
ريح 3 عقدةمن اتجاهات متغيرة تتزايد حتى 14 عقدة
الرؤية: 7000 متر
المعلومات الواردة في هذا الموقع يخضع لـإخلاء مسؤولية
طقس : أوروبا أفريقيا أمريكا الشمالية أمريكا الجنوبية آسيا أستراليا-أوقيانوسيا أخرى
صور السواتل توقعات الطقس لمدة 10 يوممناخالطقس البحري أعاصير برق مطارأسئلة وأجوبة لغات جهة اتصال الرسائل الإخبارية نبذة